Time;durP1;ratioP1;P1;durP2;ratioP2;P2;SDS_P1;SDS_P2;PMS_P1;PMS_P2;Temp;Humidity;BMP_temperature;BMP_pressure;BME280_temperature;BME280_humidity;BME280_pressure;Samples;Min_cycle;Max_cycle;Signal;HPM_P1;HPM_P2
2023/06/11 00:01:57;;;;;;;8.80;8.10;;;19.60;99.90;;;;;;5098625;28;20417;-41
2023/06/11 00:04:27;;;;;;;8.80;8.10;;;19.60;99.90;;;;;;5097658;28;20434;-43
2023/06/11 00:06:54;;;;;;;8.80;8.10;;;19.60;99.90;;;;;;5097667;28;20189;-43
2023/06/11 00:09:22;;;;;;;9.90;9.10;;;19.50;99.90;;;;;;5079778;28;20478;-42
2023/06/11 00:11:48;;;;;;;9.83;9.03;;;19.50;99.90;;;;;;5098143;28;20902;-42
2023/06/11 00:14:14;;;;;;;9.47;8.67;;;19.60;99.90;;;;;;5100196;28;20888;-46
2023/06/11 00:16:43;;;;;;;9.43;8.47;;;19.60;99.90;;;;;;5097680;28;20412;-41
2023/06/11 00:19:09;;;;;;;10.40;9.50;;;19.50;99.90;;;;;;5097558;28;20465;-42
2023/06/11 00:21:36;;;;;;;9.40;8.70;;;19.50;99.90;;;;;;5098478;28;20836;-44
2023/06/11 00:24:02;;;;;;;10.47;9.47;;;19.40;99.90;;;;;;5097886;28;20176;-42
2023/06/11 00:26:28;;;;;;;9.93;9.13;;;19.30;1.00;;;;;;5097233;28;20691;-42
2023/06/11 00:28:53;;;;;;;9.73;8.93;;;19.30;1.00;;;;;;5095994;28;20585;-41
2023/06/11 00:31:20;;;;;;;9.80;9.00;;;19.20;1.00;;;;;;5096170;28;20246;-41
2023/06/11 00:33:45;;;;;;;8.93;8.20;;;19.20;1.00;;;;;;5095695;28;20275;-42
2023/06/11 00:36:11;;;;;;;9.10;8.37;;;19.20;1.00;;;;;;5096582;28;20940;-43
2023/06/11 00:38:37;;;;;;;9.73;8.90;;;19.10;1.00;;;;;;5095665;28;20169;-41
2023/06/11 00:41:02;;;;;;;9.67;8.93;;;19.20;1.00;;;;;;5094338;28;20184;-42
2023/06/11 00:43:30;;;;;;;9.50;8.80;;;19.10;3.30;;;;;;5098467;28;20188;-42
2023/06/11 00:45:56;;;;;;;9.97;9.17;;;19.00;99.90;;;;;;5096829;28;20233;-41
2023/06/11 00:48:22;;;;;;;9.57;8.77;;;18.90;99.90;;;;;;5095711;28;20512;-42
2023/06/11 00:50:51;;;;;;;10.60;9.70;;;18.90;99.90;;;;;;5095364;28;20423;-41
2023/06/11 00:53:18;;;;;;;10.17;9.17;;;18.90;99.90;;;;;;5095982;28;20324;-43
2023/06/11 00:55:45;;;;;;;10.33;9.40;;;18.90;99.90;;;;;;5095638;28;20415;-44
2023/06/11 00:58:14;;;;;;;9.57;8.67;;;18.90;99.90;;;;;;5094428;28;20518;-41
2023/06/11 01:00:49;;;;;;;10.23;9.23;;;18.80;99.90;;;;;;5096607;28;20685;-43
2023/06/11 01:03:17;;;;;;;10.57;9.67;;;18.80;1.00;;;;;;5095940;28;20587;-42
2023/06/11 01:05:47;;;;;;;10.67;9.77;;;18.80;1.00;;;;;;5095826;28;20422;-41
2023/06/11 01:08:13;;;;;;;10.33;9.37;;;18.80;1.00;;;;;;5077550;28;20517;-42
2023/06/11 01:10:40;;;;;;;10.30;9.30;;;18.90;1.00;;;;;;5095397;28;20896;-44
2023/06/11 01:13:06;;;;;;;10.10;9.20;;;18.90;1.00;;;;;;5095550;28;20458;-42
2023/06/11 01:15:31;;;;;;;10.37;9.47;;;18.80;1.00;;;;;;5095138;28;20458;-42
2023/06/11 01:18:02;;;;;;;11.77;10.57;;;18.80;1.00;;;;;;5094545;28;20176;-44
2023/06/11 01:20:34;;;;;;;10.97;10.07;;;18.80;1.00;;;;;;5094627;28;20264;-41
2023/06/11 01:23:31;;;;;;;10.80;9.90;;;18.80;1.00;;;;;;5096115;28;20435;-41
2023/06/11 01:25:59;;;;;;;9.80;9.00;;;18.70;1.00;;;;;;5095866;28;20421;-43
2023/06/11 01:28:30;;;;;;;10.17;9.27;;;18.70;34.40;;;;;;5096208;28;20458;-43
2023/06/11 01:30:57;;;;;;;12.00;10.87;;;18.70;23.90;;;;;;5096945;28;20422;-41
2023/06/11 01:33:24;;;;;;;11.33;10.33;;;18.70;21.40;;;;;;5097088;28;20677;-41
2023/06/11 01:35:52;;;;;;;9.90;9.00;;;18.70;33.80;;;;;;5095369;28;20472;-45
2023/06/11 01:38:21;;;;;;;10.80;9.80;;;18.70;99.90;;;;;;5096562;28;20505;-42
2023/06/11 01:40:50;;;;;;;9.10;8.33;;;18.70;99.90;;;;;;5097502;28;20450;-42
2023/06/11 01:43:15;;;;;;;9.80;8.90;;;18.60;99.90;;;;;;5095473;28;20475;-43
2023/06/11 01:45:41;;;;;;;11.20;10.20;;;18.60;99.90;;;;;;5093706;28;20438;-42
2023/06/11 01:48:06;;;;;;;10.40;9.50;;;18.60;99.90;;;;;;5094819;28;20240;-41
2023/06/11 01:50:33;;;;;;;10.93;10.03;;;18.60;99.90;;;;;;5095659;28;20202;-42
2023/06/11 01:52:59;;;;;;;10.70;9.77;;;18.60;99.90;;;;;;5094770;28;20212;-44
2023/06/11 01:55:24;;;;;;;10.23;9.43;;;18.60;1.00;;;;;;5096457;28;20422;-41
2023/06/11 01:57:50;;;;;;;10.70;9.83;;;18.60;1.00;;;;;;5096928;28;20203;-42
2023/06/11 02:00:18;;;;;;;11.47;10.47;;;18.50;1.00;;;;;;5095577;28;20203;-45
2023/06/11 02:02:47;;;;;;;12.20;11.20;;;18.60;1.00;;;;;;5093493;28;20471;-42
2023/06/11 02:05:13;;;;;;;11.97;11.03;;;18.70;99.90;;;;;;5093420;28;20688;-43
2023/06/11 02:07:39;;;;;;;10.30;9.50;;;18.70;1.00;;;;;;5095209;28;20426;-43
2023/06/11 02:10:05;;;;;;;11.40;10.50;;;18.70;1.00;;;;;;5095652;28;20246;-41
2023/06/11 02:12:31;;;;;;;11.47;10.47;;;18.60;1.00;;;;;;5094539;28;20857;-44
2023/06/11 02:14:59;;;;;;;11.23;10.37;;;18.50;1.00;;;;;;5095123;28;20521;-43
2023/06/11 02:17:25;;;;;;;11.83;10.73;;;18.40;13.10;;;;;;5094750;28;20184;-42
2023/06/11 02:19:51;;;;;;;11.73;10.73;;;18.40;99.90;;;;;;5095166;28;20547;-44
2023/06/11 02:22:16;;;;;;;11.03;10.13;;;18.40;99.90;;;;;;5096745;28;20181;-43
2023/06/11 02:24:42;;;;;;;10.23;9.33;;;18.40;99.90;;;;;;5095075;28;20505;-43
2023/06/11 02:27:07;;;;;;;10.53;9.63;;;18.30;99.90;;;;;;5096265;28;20538;-41
2023/06/11 02:29:33;;;;;;;10.67;9.87;;;18.30;99.90;;;;;;5094408;28;20549;-42
2023/06/11 02:31:59;;;;;;;10.80;10.00;;;18.30;99.90;;;;;;5095598;28;20164;-42
2023/06/11 02:34:25;;;;;;;10.33;9.43;;;18.30;99.90;;;;;;5096101;28;20172;-43
2023/06/11 02:36:50;;;;;;;11.20;10.20;;;18.40;99.90;;;;;;5096113;28;20219;-42
2023/06/11 02:39:16;;;;;;;11.37;10.47;;;18.40;99.90;;;;;;5096688;28;20654;-41
2023/06/11 02:41:41;;;;;;;11.97;10.97;;;18.30;99.90;;;;;;5097195;28;20188;-44
2023/06/11 02:44:07;;;;;;;11.10;10.13;;;18.30;99.90;;;;;;5096442;28;20232;-41
2023/06/11 02:46:33;;;;;;;10.43;9.53;;;18.30;99.90;;;;;;5094888;28;20180;-43
2023/06/11 02:48:58;;;;;;;11.13;10.27;;;18.40;99.90;;;;;;5095120;28;20227;-42
2023/06/11 02:51:24;;;;;;;11.20;10.10;;;18.30;99.90;;;;;;5093411;28;20229;-41
2023/06/11 02:53:50;;;;;;;10.80;9.90;;;18.30;1.00;;;;;;5093995;28;20237;-42
2023/06/11 02:56:15;;;;;;;11.70;10.50;;;18.30;1.00;;;;;;5094945;28;20689;-41
2023/06/11 02:58:41;;;;;;;10.20;9.40;;;18.20;1.00;;;;;;5095120;28;20446;-43
2023/06/11 03:01:06;;;;;;;10.77;9.77;;;18.20;1.00;;;;;;5096448;28;20188;-42
2023/06/11 03:03:32;;;;;;;11.50;10.60;;;18.20;23.90;;;;;;5097753;28;20202;-40
2023/06/11 03:05:58;;;;;;;11.00;9.97;;;18.20;8.40;;;;;;5096851;28;20246;-42
2023/06/11 03:08:23;;;;;;;11.20;10.30;;;18.10;99.90;;;;;;5096841;28;20554;-42
2023/06/11 03:10:49;;;;;;;11.40;10.30;;;18.10;1.00;;;;;;5096516;28;20175;-42
2023/06/11 03:13:14;;;;;;;11.17;10.27;;;18.20;1.00;;;;;;5099551;28;20180;-42
2023/06/11 03:15:40;;;;;;;11.40;10.50;;;18.10;62.40;;;;;;5098878;28;20211;-42
2023/06/11 03:18:06;;;;;;;11.13;10.17;;;18.10;57.00;;;;;;5098827;28;20501;-41
2023/06/11 03:20:31;;;;;;;10.97;9.97;;;18.10;1.00;;;;;;5098283;28;20199;-41
2023/06/11 03:22:57;;;;;;;11.97;10.87;;;18.10;55.20;;;;;;5098863;28;20172;-41
2023/06/11 03:25:22;;;;;;;10.57;9.63;;;18.10;19.70;;;;;;5098339;28;20188;-43
2023/06/11 03:27:48;;;;;;;11.30;10.40;;;18.10;99.90;;;;;;5098625;28;20175;-41
2023/06/11 03:30:14;;;;;;;10.27;9.37;;;18.00;99.90;;;;;;5098430;28;20670;-41
2023/06/11 03:32:40;;;;;;;11.10;10.10;;;18.00;99.90;;;;;;5098070;28;20422;-41
2023/06/11 03:35:06;;;;;;;10.40;9.60;;;18.10;99.90;;;;;;5100117;28;20761;-41
2023/06/11 03:37:31;;;;;;;10.50;9.70;;;18.00;99.90;;;;;;5098762;28;20198;-41
2023/06/11 03:39:57;;;;;;;11.87;10.87;;;18.00;99.90;;;;;;5099581;28;20180;-42
2023/06/11 03:42:22;;;;;;;10.63;9.77;;;18.00;99.90;;;;;;5099245;28;20187;-42
2023/06/11 03:44:49;;;;;;;10.30;9.50;;;18.00;99.90;;;;;;5096956;28;20462;-42
2023/06/11 03:47:15;;;;;;;10.70;9.70;;;18.00;99.90;;;;;;5099366;28;20180;-41
2023/06/11 03:49:40;;;;;;;9.83;9.03;;;18.00;99.90;;;;;;5098272;28;20466;-42
2023/06/11 03:52:06;;;;;;;11.30;10.40;;;18.00;99.90;;;;;;5096301;28;20600;-41
2023/06/11 03:54:32;;;;;;;10.97;10.00;;;18.10;99.90;;;;;;5098439;28;20173;-43
2023/06/11 03:56:58;;;;;;;10.77;9.87;;;18.10;99.90;;;;;;5099160;28;20519;-41
2023/06/11 03:59:23;;;;;;;11.30;10.40;;;18.10;99.90;;;;;;5099883;28;20179;-43
2023/06/11 04:01:49;;;;;;;11.67;10.57;;;18.10;99.90;;;;;;5099567;28;20410;-45
2023/06/11 04:04:14;;;;;;;11.00;10.10;;;18.10;99.90;;;;;;5098342;28;20269;-43
2023/06/11 04:06:42;;;;;;;10.83;9.93;;;18.00;99.90;;;;;;5098255;28;20259;-41
2023/06/11 04:09:10;;;;;;;11.00;10.10;;;18.00;99.90;;;;;;5098010;28;20262;-43
2023/06/11 04:11:36;;;;;;;10.80;9.90;;;18.00;99.90;;;;;;5079565;28;20411;-43
2023/06/11 04:14:02;;;;;;;9.93;9.10;;;18.00;99.90;;;;;;5097939;28;20422;-53
2023/06/11 04:16:27;;;;;;;10.70;9.80;;;18.00;99.90;;;;;;5096474;28;20181;-41
2023/06/11 04:18:53;;;;;;;10.70;9.70;;;18.00;99.90;;;;;;5097336;28;20426;-44
2023/06/11 04:21:19;;;;;;;10.07;9.17;;;18.10;99.90;;;;;;5095601;28;20714;-41
2023/06/11 04:23:44;;;;;;;9.50;8.70;;;18.00;99.90;;;;;;5097351;28;20192;-41
2023/06/11 04:26:10;;;;;;;10.33;9.53;;;18.00;99.90;;;;;;5096659;28;20183;-41
2023/06/11 04:28:40;;;;;;;10.40;9.50;;;18.10;99.90;;;;;;5095835;28;20567;-43
2023/06/11 04:31:07;;;;;;;11.07;10.17;;;18.10;99.90;;;;;;5095031;28;20183;-42
2023/06/11 04:33:33;;;;;;;9.70;8.93;;;18.10;99.90;;;;;;5096669;28;20426;-41
2023/06/11 04:36:04;;;;;;;10.60;9.70;;;18.20;99.90;;;;;;5097390;28;20700;-41
2023/06/11 04:38:31;;;;;;;10.43;9.53;;;18.30;99.90;;;;;;5098204;28;20864;-41
2023/06/11 04:40:57;;;;;;;9.57;8.83;;;18.40;39.10;;;;;;5097340;28;20534;-48
2023/06/11 04:43:23;;;;;;;10.23;9.43;;;18.40;1.00;;;;;;5098861;28;20437;-44
2023/06/11 04:45:59;;;;;;;10.67;9.77;;;18.50;99.90;;;;;;5098727;28;20567;-44
2023/06/11 04:48:27;;;;;;;11.23;10.33;;;18.50;99.90;;;;;;5098067;28;20895;-41
2023/06/11 04:50:53;;;;;;;10.20;9.30;;;18.60;99.90;;;;;;5098045;28;20459;-42
2023/06/11 04:53:22;;;;;;;9.63;8.63;;;18.60;99.90;;;;;;5096920;28;20398;-43
2023/06/11 04:55:50;;;;;;;11.83;9.77;;;18.60;99.90;;;;;;5097332;28;20402;-41
2023/06/11 04:58:16;;;;;;;10.27;9.37;;;18.70;20.90;;;;;;5097431;28;20696;-42
2023/06/11 05:00:42;;;;;;;10.03;9.30;;;18.70;99.90;;;;;;5098507;28;20422;-41
2023/06/11 05:03:08;;;;;;;10.40;9.53;;;18.80;7.40;;;;;;5098119;28;20200;-41
2023/06/11 05:05:34;;;;;;;10.80;9.80;;;18.80;99.90;;;;;;5098389;28;20413;-41
2023/06/11 05:08:01;;;;;;;11.03;10.13;;;18.80;99.90;;;;;;5098468;28;20184;-44
2023/06/11 05:10:26;;;;;;;10.90;9.90;;;18.90;1.00;;;;;;5079910;28;20584;-43
2023/06/11 05:12:52;;;;;;;9.67;8.97;;;19.00;1.00;;;;;;5098040;28;20450;-44
2023/06/11 05:15:18;;;;;;;10.73;9.83;;;19.00;1.00;;;;;;5097658;28;20188;-44
2023/06/11 05:17:45;;;;;;;10.67;9.87;;;19.10;1.00;;;;;;5097430;28;20169;-42
2023/06/11 05:20:11;;;;;;;10.77;9.87;;;19.20;99.90;;;;;;5097598;28;20910;-43
2023/06/11 05:22:37;;;;;;;10.47;9.67;;;19.20;99.90;;;;;;5097954;28;20527;-41
2023/06/11 05:25:03;;;;;;;9.33;8.53;;;19.30;99.90;;;;;;5095631;28;20450;-41
2023/06/11 05:27:29;;;;;;;9.83;9.03;;;19.30;99.90;;;;;;5094438;28;20295;-42
2023/06/11 05:29:56;;;;;;;10.10;9.20;;;19.40;99.90;;;;;;5094901;28;20473;-40
2023/06/11 05:32:22;;;;;;;10.07;9.27;;;19.40;99.90;;;;;;5095564;28;20168;-43
2023/06/11 05:34:49;;;;;;;9.70;9.00;;;19.50;93.60;;;;;;5092651;28;20426;-42
2023/06/11 05:37:16;;;;;;;10.97;10.10;;;19.60;99.90;;;;;;5095462;28;20545;-42
2023/06/11 05:39:42;;;;;;;9.47;8.80;;;19.70;1.00;;;;;;5094083;28;20434;-44
2023/06/11 05:42:08;;;;;;;10.33;9.33;;;19.80;1.00;;;;;;5093940;28;20438;-41
2023/06/11 05:44:33;;;;;;;9.33;8.63;;;19.90;99.90;;;;;;5094188;28;20176;-41
2023/06/11 05:46:59;;;;;;;10.00;9.10;;;19.90;99.90;;;;;;5095638;28;20414;-42
2023/06/11 05:49:25;;;;;;;10.40;9.60;;;20.00;99.90;;;;;;5094943;28;20571;-44
2023/06/11 05:51:50;;;;;;;9.70;8.80;;;20.10;99.90;;;;;;5097332;28;20236;-41
2023/06/11 05:54:16;;;;;;;9.90;9.20;;;20.20;99.90;;;;;;5095116;28;20263;-41
2023/06/11 05:56:43;;;;;;;9.27;8.57;;;20.30;99.90;;;;;;5096846;28;20515;-42
2023/06/11 05:59:08;;;;;;;10.00;9.20;;;20.50;1.00;;;;;;5097059;28;20168;-42
2023/06/11 06:01:34;;;;;;;10.50;9.70;;;20.60;1.00;;;;;;5096836;28;20482;-42
2023/06/11 06:04:00;;;;;;;9.97;9.17;;;20.70;99.90;;;;;;5096877;28;20176;-42
2023/06/11 06:06:32;;;;;;;10.43;9.43;;;20.70;99.90;;;;;;5095477;28;20513;-44
2023/06/11 06:09:05;;;;;;;10.07;9.17;;;20.80;99.90;;;;;;5095415;28;20558;-48
2023/06/11 06:11:31;;;;;;;10.13;9.33;;;20.70;70.80;;;;;;5095640;28;20418;-44
2023/06/11 06:13:57;;;;;;;10.70;9.90;;;20.70;99.90;;;;;;5095982;28;20411;-43
2023/06/11 06:16:22;;;;;;;9.40;8.60;;;20.70;99.90;;;;;;5095650;28;20173;-43
2023/06/11 06:18:48;;;;;;;9.73;8.93;;;20.80;99.90;;;;;;5092788;28;20426;-44
2023/06/11 06:21:14;;;;;;;10.67;9.77;;;20.90;99.90;;;;;;5094258;28;20265;-41
2023/06/11 06:23:39;;;;;;;8.43;7.73;;;21.10;33.10;;;;;;5095691;28;20430;-45
2023/06/11 06:26:05;;;;;;;10.40;9.60;;;21.20;1.00;;;;;;5094091;28;20607;-42
2023/06/11 06:28:34;;;;;;;9.93;9.23;;;21.20;1.00;;;;;;5092989;28;20304;-42
2023/06/11 06:30:59;;;;;;;10.00;9.10;;;21.20;1.00;;;;;;5095981;28;20427;-42
2023/06/11 06:33:35;;;;;;;9.83;9.03;;;21.20;1.00;;;;;;5095480;28;20606;-42
2023/06/11 06:36:03;;;;;;;9.37;8.57;;;21.30;1.00;;;;;;5092987;28;20753;-42
2023/06/11 06:38:28;;;;;;;9.90;9.20;;;21.40;1.00;;;;;;5094188;28;20403;-42
2023/06/11 06:40:54;;;;;;;9.70;8.80;;;21.40;1.00;;;;;;5077801;28;20516;-42
2023/06/11 06:43:19;;;;;;;10.50;9.70;;;21.30;1.00;;;;;;5096358;28;20187;-43
2023/06/11 06:45:46;;;;;;;10.03;9.23;;;21.30;1.00;;;;;;5098846;28;20283;-42
2023/06/11 06:48:15;;;;;;;9.80;8.90;;;21.40;1.00;;;;;;5099293;28;20472;-41
2023/06/11 06:50:41;;;;;;;10.03;9.10;;;21.50;1.00;;;;;;5099326;28;20521;-41
2023/06/11 06:53:06;;;;;;;9.13;8.40;;;21.60;1.00;;;;;;5100192;28;20460;-45
2023/06/11 06:55:32;;;;;;;10.30;9.50;;;21.80;1.00;;;;;;5100289;28;20186;-43
2023/06/11 06:58:00;;;;;;;10.33;9.47;;;21.90;1.00;;;;;;5099556;28;20188;-45
2023/06/11 07:00:26;;;;;;;10.80;9.90;;;22.10;99.90;;;;;;5101185;28;20180;-43
2023/06/11 07:02:51;;;;;;;9.63;8.73;;;22.10;99.90;;;;;;5100458;28;20429;-42
2023/06/11 07:05:18;;;;;;;10.53;9.73;;;22.20;99.90;;;;;;5099627;28;20176;-44
2023/06/11 07:07:43;;;;;;;10.03;9.13;;;22.30;99.90;;;;;;5098973;28;20177;-43
2023/06/11 07:10:09;;;;;;;10.37;9.47;;;22.40;99.90;;;;;;5099009;28;20580;-42
2023/06/11 07:12:35;;;;;;;9.77;8.83;;;22.40;99.90;;;;;;5098585;28;20422;-42
2023/06/11 07:15:00;;;;;;;9.20;8.50;;;22.60;99.90;;;;;;5097584;28;20433;-44
2023/06/11 07:17:27;;;;;;;9.33;8.53;;;22.80;99.90;;;;;;5099670;28;20199;-43
2023/06/11 07:19:53;;;;;;;9.63;8.83;;;23.00;99.90;;;;;;5099270;28;20542;-43
2023/06/11 07:22:18;;;;;;;10.80;9.90;;;23.30;99.90;;;;;;5098811;28;20434;-44
2023/06/11 07:24:47;;;;;;;10.97;10.17;;;23.40;49.90;;;;;;5098915;28;20265;-43
2023/06/11 07:27:13;;;;;;;9.70;9.00;;;23.50;26.00;;;;;;5098750;28;20187;-43
2023/06/11 07:29:39;;;;;;;9.97;9.27;;;23.40;25.20;;;;;;5099577;28;20531;-44
2023/06/11 07:32:06;;;;;;;9.80;9.10;;;23.50;40.40;;;;;;5098512;28;20695;-46
2023/06/11 07:34:32;;;;;;;9.03;8.27;;;23.70;1.40;;;;;;5097635;28;20507;-46
2023/06/11 07:36:58;;;;;;;9.17;8.47;;;23.70;1.00;;;;;;5096403;28;20426;-44
2023/06/11 07:39:24;;;;;;;9.70;9.00;;;23.70;1.00;;;;;;5095517;28;20426;-44
2023/06/11 07:41:49;;;;;;;9.73;8.83;;;23.80;1.00;;;;;;5095655;28;20250;-42
2023/06/11 07:44:15;;;;;;;10.20;9.40;;;24.00;1.00;;;;;;5095383;28;20179;-44
2023/06/11 07:46:41;;;;;;;9.57;8.77;;;24.30;1.00;;;;;;5096297;28;20237;-46
2023/06/11 07:49:06;;;;;;;9.57;8.87;;;24.50;1.00;;;;;;5095755;28;20599;-44
2023/06/11 07:51:32;;;;;;;9.23;8.53;;;24.80;1.00;;;;;;5095883;28;20228;-44
2023/06/11 07:54:00;;;;;;;9.83;9.03;;;24.80;1.00;;;;;;5097029;28;20184;-43
2023/06/11 07:56:26;;;;;;;10.07;9.37;;;24.90;1.00;;;;;;5097042;28;20176;-44
2023/06/11 07:58:52;;;;;;;9.70;8.90;;;24.90;1.00;;;;;;5096457;28;20407;-42
2023/06/11 08:01:18;;;;;;;10.10;9.30;;;24.80;1.00;;;;;;5079068;28;20609;-43
2023/06/11 08:03:44;;;;;;;10.20;9.40;;;24.90;1.00;;;;;;5098709;28;20458;-42
2023/06/11 08:06:09;;;;;;;10.00;9.20;;;24.90;1.00;;;;;;5098161;28;20211;-44
2023/06/11 08:08:35;;;;;;;10.30;9.50;;;24.80;1.00;;;;;;5098631;28;20586;-44
2023/06/11 08:11:01;;;;;;;9.80;8.53;;;24.80;1.00;;;;;;5098742;28;20529;-42
2023/06/11 08:13:27;;;;;;;9.00;8.30;;;24.90;1.00;;;;;;5098338;28;20180;-43
2023/06/11 08:15:53;;;;;;;9.47;8.57;;;24.90;1.00;;;;;;5097469;28;20279;-45
2023/06/11 08:18:19;;;;;;;8.70;8.00;;;24.90;1.00;;;;;;5095843;28;20523;-44
2023/06/11 08:20:45;;;;;;;8.87;8.13;;;24.90;1.00;;;;;;5095912;28;20457;-44
2023/06/11 08:23:12;;;;;;;8.80;8.00;;;25.10;1.00;;;;;;5093364;28;20172;-44
2023/06/11 08:25:39;;;;;;;7.90;7.40;;;25.20;1.00;;;;;;5093646;28;20446;-42
2023/06/11 08:28:05;;;;;;;8.60;7.80;;;25.50;1.00;;;;;;5095314;28;21097;-43
2023/06/11 08:30:31;;;;;;;8.70;8.00;;;25.80;1.00;;;;;;5092759;28;21146;-44
2023/06/11 08:32:56;;;;;;;8.53;7.93;;;26.10;1.00;;;;;;5093027;28;20545;-43
2023/06/11 08:35:22;;;;;;;8.40;7.70;;;26.10;1.00;;;;;;5096752;28;20183;-47
2023/06/11 08:37:47;;;;;;;9.13;8.23;;;25.80;1.00;;;;;;5097085;28;20530;-43
2023/06/11 08:40:13;;;;;;;9.53;8.73;;;25.60;1.00;;;;;;5096505;28;20195;-43
2023/06/11 08:42:39;;;;;;;8.00;7.30;;;25.60;1.00;;;;;;5094373;28;20515;-43
2023/06/11 08:45:05;;;;;;;8.80;8.17;;;25.60;1.00;;;;;;5095161;28;20181;-43
2023/06/11 08:47:31;;;;;;;9.27;8.57;;;25.60;1.00;;;;;;5094965;28;20229;-43
2023/06/11 08:49:59;;;;;;;8.93;7.50;;;26.00;1.00;;;;;;5093663;28;20890;-46
2023/06/11 08:52:26;;;;;;;7.80;7.10;;;26.50;1.00;;;;;;5094477;28;20240;-43
2023/06/11 08:54:55;;;;;;;8.80;8.00;;;26.90;1.00;;;;;;5093981;28;20461;-43
2023/06/11 08:57:21;;;;;;;8.83;8.13;;;27.20;1.00;;;;;;5094947;28;20744;-44
2023/06/11 08:59:47;;;;;;;8.47;7.83;;;27.40;1.00;;;;;;5095807;28;20530;-44
2023/06/11 09:02:13;;;;;;;8.67;7.87;;;27.40;1.00;;;;;;5094208;28;20184;-45
2023/06/11 09:04:43;;;;;;;8.70;8.00;;;26.80;1.00;;;;;;5096239;28;20506;-44
2023/06/11 09:07:09;;;;;;;8.20;7.60;;;26.60;1.00;;;;;;5093770;28;20211;-43
2023/06/11 09:09:35;;;;;;;7.80;7.10;;;26.60;1.00;;;;;;5094168;28;20832;-44
2023/06/11 09:12:08;;;;;;;7.70;7.10;;;26.80;1.00;;;;;;5094907;28;20192;-44
2023/06/11 09:14:33;;;;;;;8.00;7.40;;;26.80;1.00;;;;;;5094755;28;20279;-44
2023/06/11 09:16:59;;;;;;;8.23;7.53;;;26.90;1.00;;;;;;5093238;28;20513;-44
2023/06/11 09:19:25;;;;;;;8.60;7.97;;;27.00;1.00;;;;;;5093489;28;20180;-44
2023/06/11 09:21:52;;;;;;;7.40;6.90;;;27.10;1.00;;;;;;5092432;28;20185;-41
2023/06/11 09:24:19;;;;;;;8.00;7.30;;;27.20;1.00;;;;;;5093315;28;20474;-45
2023/06/11 09:26:57;;;;;;;10.10;7.50;;;27.20;1.00;;;;;;5093342;28;20435;-42
2023/06/11 09:29:24;;;;;;;8.40;6.60;;;27.40;1.00;;;;;;5094181;28;20580;-48
2023/06/11 09:32:02;;;;;;;8.17;7.37;;;27.70;1.00;;;;;;5094166;28;20403;-47
2023/06/11 09:34:28;;;;;;;8.63;7.93;;;28.10;1.00;;;;;;5094414;28;20442;-45
2023/06/11 09:36:53;;;;;;;7.13;6.53;;;28.40;1.00;;;;;;5094502;28;20827;-45
2023/06/11 09:39:19;;;;;;;7.77;7.07;;;28.40;1.00;;;;;;5093768;28;20218;-46
2023/06/11 09:41:49;;;;;;;7.70;7.00;;;28.50;1.00;;;;;;5095271;28;20195;-45
2023/06/11 09:44:18;;;;;;;8.20;7.60;;;28.70;1.00;;;;;;5093603;28;20572;-43
2023/06/11 09:46:48;;;;;;;8.03;7.43;;;29.00;1.00;;;;;;5096684;28;20533;-43
2023/06/11 09:49:15;;;;;;;8.37;7.63;;;28.90;1.00;;;;;;5096625;28;20493;-45
2023/06/11 09:51:41;;;;;;;7.93;7.20;;;29.00;1.00;;;;;;5095901;28;20482;-43
2023/06/11 09:54:07;;;;;;;8.73;8.03;;;29.20;1.00;;;;;;5095748;28;20727;-45
2023/06/11 09:56:35;;;;;;;8.20;7.50;;;29.60;1.00;;;;;;5094208;28;20439;-43
2023/06/11 09:59:01;;;;;;;7.70;6.90;;;29.90;1.00;;;;;;5095893;28;20727;-44
2023/06/11 10:01:29;;;;;;;7.63;7.00;;;29.60;1.00;;;;;;5094510;28;20473;-43
2023/06/11 10:03:55;;;;;;;7.77;7.17;;;29.70;1.00;;;;;;5095304;28;20510;-45
2023/06/11 10:06:26;;;;;;;7.07;6.47;;;29.80;1.00;;;;;;5093307;28;20537;-43
2023/06/11 10:08:53;;;;;;;8.30;7.70;;;30.10;1.00;;;;;;5093075;28;20474;-44
2023/06/11 10:11:22;;;;;;;8.27;7.67;;;30.40;1.00;;;;;;5092243;28;20589;-42
2023/06/11 10:14:00;;;;;;;8.50;7.70;;;30.60;1.00;;;;;;5093936;28;20408;-45
2023/06/11 10:16:27;;;;;;;8.00;7.40;;;30.90;1.00;;;;;;5093634;28;20570;-42
2023/06/11 10:19:06;;;;;;;8.20;7.50;;;31.30;1.00;;;;;;5093291;28;20536;-44
2023/06/11 10:21:40;;;;;;;7.83;7.10;;;31.10;1.00;;;;;;5093524;28;20405;-42
2023/06/11 10:24:06;;;;;;;8.90;8.27;;;30.70;1.00;;;;;;5091065;28;20434;-42
2023/06/11 10:26:35;;;;;;;8.33;7.73;;;30.10;1.00;;;;;;5092054;28;21016;-42
2023/06/11 10:29:01;;;;;;;8.53;7.83;;;29.70;1.00;;;;;;5092737;28;20959;-44
2023/06/11 10:31:30;;;;;;;7.97;7.27;;;30.00;1.00;;;;;;5093491;28;20502;-42
2023/06/11 10:34:03;;;;;;;7.93;7.33;;;30.30;1.00;;;;;;5074885;28;20832;-45
2023/06/11 10:36:37;;;;;;;7.90;7.30;;;30.70;1.00;;;;;;5074971;28;20434;-42
2023/06/11 10:39:20;;;;;;;7.90;7.30;;;30.90;1.00;;;;;;5092965;28;20438;-44
2023/06/11 10:41:45;;;;;;;7.80;7.20;;;31.10;1.00;;;;;;5092325;28;20433;-44
2023/06/11 10:44:11;;;;;;;8.03;7.43;;;31.50;1.00;;;;;;5093006;28;20410;-43
2023/06/11 10:46:48;;;;;;;7.87;7.17;;;31.70;1.00;;;;;;5093952;28;20286;-43
2023/06/11 10:49:15;;;;;;;7.70;7.00;;;31.70;1.00;;;;;;5094576;28;20214;-48
2023/06/11 10:51:41;;;;;;;8.17;7.40;;;31.80;1.00;;;;;;5093561;28;20449;-44
2023/06/11 10:54:07;;;;;;;8.37;7.60;;;31.50;1.00;;;;;;5091912;28;20967;-42
2023/06/11 10:56:36;;;;;;;8.00;7.33;;;31.00;1.00;;;;;;5092996;28;20435;-44
2023/06/11 10:59:07;;;;;;;8.13;7.43;;;30.60;1.00;;;;;;5094780;28;20745;-41
2023/06/11 11:01:33;;;;;;;7.60;7.00;;;30.60;1.00;;;;;;5094806;28;20457;-42
2023/06/11 11:04:04;;;;;;;7.20;6.70;;;30.50;1.00;;;;;;5093509;28;20486;-44
2023/06/11 11:06:30;;;;;;;7.47;6.90;;;30.40;1.00;;;;;;5092852;28;20176;-53
2023/06/11 11:08:56;;;;;;;7.77;7.17;;;30.30;1.00;;;;;;5094475;28;20492;-43
2023/06/11 11:11:22;;;;;;;7.43;6.93;;;30.30;1.00;;;;;;5095207;28;20445;-42
2023/06/11 11:13:49;;;;;;;7.97;7.37;;;30.10;1.00;;;;;;5093013;28;20415;-43
2023/06/11 11:16:15;;;;;;;7.73;6.90;;;30.20;1.00;;;;;;5076994;28;20441;-45
2023/06/11 11:18:41;;;;;;;7.83;7.23;;;30.70;1.00;;;;;;5076393;28;20446;-46
2023/06/11 11:21:06;;;;;;;6.97;6.47;;;30.80;1.00;;;;;;5107267;28;20440;-43
2023/06/11 11:23:33;;;;;;;8.57;7.30;;;30.90;1.00;;;;;;5115668;28;20674;-41
2023/06/11 11:25:58;;;;;;;7.57;6.87;;;31.00;1.00;;;;;;5113325;28;20237;-44
2023/06/11 11:28:26;;;;;;;7.20;6.70;;;30.90;1.00;;;;;;5114940;28;20425;-45
2023/06/11 11:30:52;;;;;;;6.73;6.23;;;30.90;1.00;;;;;;5113454;28;20630;-43
2023/06/11 11:33:18;;;;;;;7.70;7.07;;;31.10;1.00;;;;;;5116957;28;20520;-44
2023/06/11 11:35:53;;;;;;;7.20;6.60;;;31.30;1.00;;;;;;5100770;28;20453;-44
2023/06/11 11:38:19;;;;;;;8.57;7.90;;;31.60;1.00;;;;;;5117235;28;20239;-43
2023/06/11 11:40:45;;;;;;;7.13;6.60;;;32.00;1.00;;;;;;5115532;28;20421;-43
2023/06/11 11:43:14;;;;;;;7.37;6.83;;;32.40;1.00;;;;;;5117505;28;20421;-44
2023/06/11 11:45:45;;;;;;;6.67;6.10;;;32.80;1.00;;;;;;5118550;28;20199;-44
2023/06/11 11:48:15;;;;;;;7.13;6.53;;;32.90;1.00;;;;;;5118114;28;20425;-43
2023/06/11 11:50:40;;;;;;;8.10;7.40;;;32.80;1.00;;;;;;5117336;28;20473;-46
2023/06/11 11:53:18;;;;;;;6.90;6.37;;;32.50;1.00;;;;;;5118050;28;20440;-45
2023/06/11 11:55:45;;;;;;;7.07;6.57;;;32.30;1.00;;;;;;5117521;28;20182;-43
2023/06/11 11:58:13;;;;;;;7.27;6.57;;;32.60;1.00;;;;;;5097994;28;20423;-46
2023/06/11 12:00:53;;;;;;;6.60;6.17;;;32.80;1.00;;;;;;5096894;28;20490;-46
2023/06/11 12:03:20;;;;;;;8.67;7.90;;;33.20;1.00;;;;;;5116542;28;20411;-44
2023/06/11 12:06:06;;;;;;;8.13;7.43;;;33.60;1.00;;;;;;5116101;28;20422;-44
2023/06/11 12:08:33;;;;;;;7.40;6.90;;;33.60;1.00;;;;;;5116913;28;20540;-43
2023/06/11 12:11:00;;;;;;;7.83;7.03;;;33.70;1.00;;;;;;5117530;28;20404;-43
2023/06/11 12:13:25;;;;;;;7.70;7.10;;;33.90;1.00;;;;;;5118572;28;20409;-46
2023/06/11 12:15:51;;;;;;;7.00;6.50;;;33.90;1.00;;;;;;5118050;28;20400;-43
2023/06/11 12:18:17;;;;;;;7.10;6.50;;;33.70;1.00;;;;;;5118434;28;20248;-44
2023/06/11 12:20:42;;;;;;;7.13;6.63;;;33.60;1.00;;;;;;5117542;28;20183;-43
2023/06/11 12:23:08;;;;;;;7.17;6.57;;;33.70;1.00;;;;;;5117266;27;20171;-44
2023/06/11 12:25:34;;;;;;;7.60;7.00;;;33.90;1.00;;;;;;5118163;28;20187;-43
2023/06/11 12:28:00;;;;;;;9.80;6.97;;;34.50;1.00;;;;;;5117067;28;20183;-45
2023/06/11 12:30:26;;;;;;;8.90;7.47;;;34.70;1.00;;;;;;5115705;28;20226;-44
2023/06/11 12:32:52;;;;;;;6.73;6.33;;;34.60;1.00;;;;;;5118033;28;20425;-44
2023/06/11 12:35:18;;;;;;;7.33;6.83;;;34.50;1.00;;;;;;5118326;27;20577;-44
2023/06/11 12:37:45;;;;;;;7.37;6.87;;;34.50;1.00;;;;;;5118182;28;20179;-43
2023/06/11 12:40:12;;;;;;;8.07;7.27;;;33.90;1.00;;;;;;5117659;28;20222;-43
2023/06/11 12:42:38;;;;;;;7.50;6.90;;;33.50;1.00;;;;;;5115959;28;20793;-46
2023/06/11 12:45:05;;;;;;;7.63;7.03;;;33.50;1.00;;;;;;5117799;28;20430;-44
2023/06/11 12:47:31;;;;;;;7.60;7.00;;;33.60;1.00;;;;;;5117810;28;20408;-46